sensor_id;sensor_type;location;lat;lon;timestamp;pressure;altitude;pressure_sealevel;temperature;humidity
13705;BME280;6924;52.122;9.952;2023-03-26T00:01:24;99405.88;;;6.78;100.00
13705;BME280;6924;52.122;9.952;2023-03-26T00:03:52;99425.22;;;6.79;100.00
13705;BME280;6924;52.122;9.952;2023-03-26T00:06:23;99412.66;;;6.77;100.00
13705;BME280;6924;52.122;9.952;2023-03-26T00:08:50;99414.81;;;6.80;100.00
13705;BME280;6924;52.122;9.952;2023-03-26T00:11:19;99416.97;;;6.83;100.00
13705;BME280;6924;52.122;9.952;2023-03-26T00:13:47;99417.84;;;6.83;100.00
13705;BME280;6924;52.122;9.952;2023-03-26T00:16:16;99419.47;;;6.85;100.00
13705;BME280;6924;52.122;9.952;2023-03-26T00:18:43;99424.44;;;6.88;100.00
13705;BME280;6924;52.122;9.952;2023-03-26T00:21:12;99425.94;;;6.85;100.00
13705;BME280;6924;52.122;9.952;2023-03-26T00:23:39;99429.91;;;6.84;100.00
13705;BME280;6924;52.122;9.952;2023-03-26T00:26:06;99422.50;;;6.88;100.00
13705;BME280;6924;52.122;9.952;2023-03-26T00:28:34;99422.81;;;6.87;100.00
13705;BME280;6924;52.122;9.952;2023-03-26T00:31:04;99432.19;;;6.82;100.00
13705;BME280;6924;52.122;9.952;2023-03-26T00:33:31;99429.38;;;6.82;100.00
13705;BME280;6924;52.122;9.952;2023-03-26T00:36:03;99435.00;;;6.82;100.00
13705;BME280;6924;52.122;9.952;2023-03-26T00:38:31;99431.88;;;6.83;100.00
13705;BME280;6924;52.122;9.952;2023-03-26T00:41:04;99433.84;;;6.83;100.00
13705;BME280;6924;52.122;9.952;2023-03-26T00:43:31;99430.50;;;6.81;100.00
13705;BME280;6924;52.122;9.952;2023-03-26T00:45:58;99437.81;;;6.82;100.00
13705;BME280;6924;52.122;9.952;2023-03-26T00:48:27;99439.97;;;6.85;100.00
13705;BME280;6924;52.122;9.952;2023-03-26T00:50:55;99435.53;;;6.84;100.00
13705;BME280;6924;52.122;9.952;2023-03-26T00:53:22;99441.16;;;6.84;100.00
13705;BME280;6924;52.122;9.952;2023-03-26T00:55:48;99437.06;;;6.90;100.00
13705;BME280;6924;52.122;9.952;2023-03-26T00:58:15;99441.53;;;6.91;100.00
13705;BME280;6924;52.122;9.952;2023-03-26T01:00:44;99444.13;;;6.88;100.00
13705;BME280;6924;52.122;9.952;2023-03-26T01:03:14;99445.00;;;6.88;100.00
13705;BME280;6924;52.122;9.952;2023-03-26T01:05:47;99440.50;;;6.87;100.00
13705;BME280;6924;52.122;9.952;2023-03-26T01:08:23;99449.13;;;6.91;100.00
13705;BME280;6924;52.122;9.952;2023-03-26T01:10:50;99446.94;;;6.88;100.00
13705;BME280;6924;52.122;9.952;2023-03-26T01:13:19;99456.75;;;6.90;100.00
13705;BME280;6924;52.122;9.952;2023-03-26T01:15:47;99449.69;;;6.79;100.00
13705;BME280;6924;52.122;9.952;2023-03-26T01:18:17;99455.63;;;6.77;100.00
13705;BME280;6924;52.122;9.952;2023-03-26T01:20:46;99453.44;;;6.74;100.00
13705;BME280;6924;52.122;9.952;2023-03-26T01:23:18;99460.34;;;6.68;100.00
13705;BME280;6924;52.122;9.952;2023-03-26T01:25:52;99462.50;;;6.71;100.00
13705;BME280;6924;52.122;9.952;2023-03-26T01:28:23;99461.25;;;6.63;100.00
13705;BME280;6924;52.122;9.952;2023-03-26T01:30:56;99462.56;;;6.57;100.00
13705;BME280;6924;52.122;9.952;2023-03-26T01:33:30;99463.25;;;6.63;100.00
13705;BME280;6924;52.122;9.952;2023-03-26T01:36:04;99467.00;;;6.58;100.00
13705;BME280;6924;52.122;9.952;2023-03-26T01:38:38;99467.84;;;6.59;100.00
13705;BME280;6924;52.122;9.952;2023-03-26T01:41:15;99472.03;;;6.61;100.00
13705;BME280;6924;52.122;9.952;2023-03-26T01:43:44;99457.84;;;6.67;100.00
13705;BME280;6924;52.122;9.952;2023-03-26T01:46:14;99469.69;;;6.63;100.00
13705;BME280;6924;52.122;9.952;2023-03-26T01:48:44;99459.63;;;6.62;100.00
13705;BME280;6924;52.122;9.952;2023-03-26T01:51:13;99461.41;;;6.58;100.00
13705;BME280;6924;52.122;9.952;2023-03-26T01:53:42;99459.41;;;6.59;100.00
13705;BME280;6924;52.122;9.952;2023-03-26T01:56:17;99458.72;;;6.53;100.00
13705;BME280;6924;52.122;9.952;2023-03-26T01:58:54;99458.84;;;6.48;100.00
13705;BME280;6924;52.122;9.952;2023-03-26T02:01:26;99461.31;;;6.50;100.00
13705;BME280;6924;52.122;9.952;2023-03-26T02:03:58;99454.66;;;6.46;100.00
13705;BME280;6924;52.122;9.952;2023-03-26T02:06:32;99452.47;;;6.43;100.00
13705;BME280;6924;52.122;9.952;2023-03-26T02:09:04;99450.50;;;6.43;100.00
13705;BME280;6924;52.122;9.952;2023-03-26T02:11:34;99449.66;;;6.43;100.00
13705;BME280;6924;52.122;9.952;2023-03-26T02:14:03;99450.81;;;6.41;100.00
13705;BME280;6924;52.122;9.952;2023-03-26T02:16:30;99450.31;;;6.39;100.00
13705;BME280;6924;52.122;9.952;2023-03-26T02:18:56;99446.03;;;6.42;100.00
13705;BME280;6924;52.122;9.952;2023-03-26T02:21:23;99451.13;;;6.40;100.00
13705;BME280;6924;52.122;9.952;2023-03-26T02:23:52;99442.50;;;6.36;100.00
13705;BME280;6924;52.122;9.952;2023-03-26T02:26:23;99443.84;;;6.39;100.00
13705;BME280;6924;52.122;9.952;2023-03-26T02:28:51;99441.47;;;6.32;100.00
13705;BME280;6924;52.122;9.952;2023-03-26T02:31:17;99441.47;;;6.32;100.00
13705;BME280;6924;52.122;9.952;2023-03-26T02:33:44;99441.47;;;6.32;100.00
13705;BME280;6924;52.122;9.952;2023-03-26T02:36:12;99442.31;;;6.33;99.26
13705;BME280;6924;52.122;9.952;2023-03-26T02:38:39;99441.88;;;6.39;100.00
13705;BME280;6924;52.122;9.952;2023-03-26T02:41:06;99444.47;;;6.36;100.00
13705;BME280;6924;52.122;9.952;2023-03-26T02:43:32;99442.81;;;6.35;100.00
13705;BME280;6924;52.122;9.952;2023-03-26T02:46:00;99435.63;;;6.43;100.00
13705;BME280;6924;52.122;9.952;2023-03-26T02:48:26;99442.47;;;6.50;100.00
13705;BME280;6924;52.122;9.952;2023-03-26T02:50:53;99442.28;;;6.47;100.00
13705;BME280;6924;52.122;9.952;2023-03-26T02:53:19;99447.69;;;6.43;100.00
13705;BME280;6924;52.122;9.952;2023-03-26T02:55:48;99442.28;;;6.47;100.00
13705;BME280;6924;52.122;9.952;2023-03-26T02:58:14;99436.75;;;6.55;100.00
13705;BME280;6924;52.122;9.952;2023-03-26T03:00:42;99445.69;;;6.57;100.00
13705;BME280;6924;52.122;9.952;2023-03-26T03:03:09;99451.72;;;6.65;100.00
13705;BME280;6924;52.122;9.952;2023-03-26T03:05:36;99446.16;;;6.73;100.00
13705;BME280;6924;52.122;9.952;2023-03-26T03:08:03;99443.50;;;6.68;100.00
13705;BME280;6924;52.122;9.952;2023-03-26T03:10:31;99442.03;;;6.71;100.00
13705;BME280;6924;52.122;9.952;2023-03-26T03:12:58;99439.28;;;6.79;100.00
13705;BME280;6924;52.122;9.952;2023-03-26T03:15:25;99440.41;;;6.78;100.00
13705;BME280;6924;52.122;9.952;2023-03-26T03:17:52;99441.06;;;6.75;100.00
13705;BME280;6924;52.122;9.952;2023-03-26T03:20:20;99438.84;;;6.86;100.00
13705;BME280;6924;52.122;9.952;2023-03-26T03:22:46;99441.31;;;6.88;100.00
13705;BME280;6924;52.122;9.952;2023-03-26T03:25:13;99438.28;;;6.98;100.00
13705;BME280;6924;52.122;9.952;2023-03-26T03:27:41;99433.38;;;7.03;100.00
13705;BME280;6924;52.122;9.952;2023-03-26T03:30:10;99434.63;;;6.97;100.00
13705;BME280;6924;52.122;9.952;2023-03-26T03:32:37;99436.72;;;6.92;100.00
13705;BME280;6924;52.122;9.952;2023-03-26T03:35:05;99437.59;;;6.92;100.00
13705;BME280;6924;52.122;9.952;2023-03-26T03:37:33;99445.09;;;6.83;100.00
13705;BME280;6924;52.122;9.952;2023-03-26T03:39:59;99438.84;;;6.86;100.00
13705;BME280;6924;52.122;9.952;2023-03-26T03:42:26;99437.59;;;6.92;100.00
13705;BME280;6924;52.122;9.952;2023-03-26T03:44:52;99436.22;;;6.90;100.00
13705;BME280;6924;52.122;9.952;2023-03-26T03:47:18;99434.94;;;6.96;100.00
13705;BME280;6924;52.122;9.952;2023-03-26T03:49:47;99438.78;;;7.00;100.00
13705;BME280;6924;52.122;9.952;2023-03-26T03:52:13;99439.50;;;7.06;100.00
13705;BME280;6924;52.122;9.952;2023-03-26T03:54:41;99443.53;;;7.13;100.00
13705;BME280;6924;52.122;9.952;2023-03-26T03:57:08;99438.63;;;7.19;100.00
13705;BME280;6924;52.122;9.952;2023-03-26T03:59:34;99444.25;;;7.19;100.00
13705;BME280;6924;52.122;9.952;2023-03-26T04:02:02;99432.34;;;7.22;100.00
13705;BME280;6924;52.122;9.952;2023-03-26T04:04:28;99436.34;;;7.30;100.00
13705;BME280;6924;52.122;9.952;2023-03-26T04:06:56;99438.69;;;7.36;99.97
13705;BME280;6924;52.122;9.952;2023-03-26T04:09:23;99439.41;;;7.42;99.38
13705;BME280;6924;52.122;9.952;2023-03-26T04:11:50;99440.88;;;7.39;99.58
13705;BME280;6924;52.122;9.952;2023-03-26T04:14:17;99438.09;;;7.39;99.22
13705;BME280;6924;52.122;9.952;2023-03-26T04:16:43;99435.28;;;7.17;99.49
13705;BME280;6924;52.122;9.952;2023-03-26T04:19:10;99437.59;;;7.15;99.19
13705;BME280;6924;52.122;9.952;2023-03-26T04:21:38;99444.34;;;7.14;99.28
13705;BME280;6924;52.122;9.952;2023-03-26T04:24:07;99434.94;;;6.96;99.77
13705;BME280;6924;52.122;9.952;2023-03-26T04:26:34;99434.19;;;7.04;100.00
13705;BME280;6924;52.122;9.952;2023-03-26T04:29:04;99443.00;;;6.89;99.37
13705;BME280;6924;52.122;9.952;2023-03-26T04:31:36;99435.16;;;6.99;99.26
13705;BME280;6924;52.122;9.952;2023-03-26T04:34:06;99441.31;;;6.88;99.00
13705;BME280;6924;52.122;9.952;2023-03-26T04:36:38;99433.59;;;6.93;99.11
13705;BME280;6924;52.122;9.952;2023-03-26T04:39:09;99436.34;;;6.85;99.10
13705;BME280;6924;52.122;9.952;2023-03-26T04:41:37;99434.78;;;6.92;98.87
13705;BME280;6924;52.122;9.952;2023-03-26T04:44:05;99429.19;;;7.01;98.82
13705;BME280;6924;52.122;9.952;2023-03-26T04:46:31;99422.66;;;7.14;97.28
13705;BME280;6924;52.122;9.952;2023-03-26T04:48:59;99422.56;;;6.97;96.93
13705;BME280;6924;52.122;9.952;2023-03-26T04:51:32;99422.22;;;6.98;97.49
13705;BME280;6924;52.122;9.952;2023-03-26T04:54:02;99426.06;;;7.02;97.50
13705;BME280;6924;52.122;9.952;2023-03-26T04:56:37;99418.97;;;7.05;96.93
13705;BME280;6924;52.122;9.952;2023-03-26T04:59:09;99408.75;;;6.87;97.79
13705;BME280;6924;52.122;9.952;2023-03-26T05:01:39;99418.84;;;6.88;98.09
13705;BME280;6924;52.122;9.952;2023-03-26T05:04:06;99414.25;;;6.92;98.13
13705;BME280;6924;52.122;9.952;2023-03-26T05:06:32;99407.34;;;6.98;97.78
13705;BME280;6924;52.122;9.952;2023-03-26T05:08:59;99411.50;;;6.78;98.00
13705;BME280;6924;52.122;9.952;2023-03-26T05:11:25;99411.94;;;6.94;98.35
13705;BME280;6924;52.122;9.952;2023-03-26T05:13:52;99406.66;;;6.92;97.93
13705;BME280;6924;52.122;9.952;2023-03-26T05:16:19;99412.31;;;7.01;97.78
13705;BME280;6924;52.122;9.952;2023-03-26T05:18:46;99403.84;;;6.92;97.79
13705;BME280;6924;52.122;9.952;2023-03-26T05:21:12;99409.56;;;7.10;97.23
13705;BME280;6924;52.122;9.952;2023-03-26T05:23:39;99405.13;;;7.09;96.95
13705;BME280;6924;52.122;9.952;2023-03-26T05:26:06;99406.66;;;7.15;96.82
13705;BME280;6924;52.122;9.952;2023-03-26T05:28:32;99405.38;;;7.21;97.12
13705;BME280;6924;52.122;9.952;2023-03-26T05:30:59;99398.44;;;7.27;96.84
13705;BME280;6924;52.122;9.952;2023-03-26T05:33:27;99405.41;;;7.30;96.50
13705;BME280;6924;52.122;9.952;2023-03-26T05:36:00;99397.16;;;7.33;96.46
13705;BME280;6924;52.122;9.952;2023-03-26T05:38:28;99406.94;;;7.36;96.48
13705;BME280;6924;52.122;9.952;2023-03-26T05:40:58;99404.63;;;7.38;96.56
13705;BME280;6924;52.122;9.952;2023-03-26T05:43:25;99405.34;;;7.43;96.17
13705;BME280;6924;52.122;9.952;2023-03-26T05:45:51;99403.66;;;7.42;96.64
13705;BME280;6924;52.122;9.952;2023-03-26T05:48:18;99400.28;;;7.32;96.58
13705;BME280;6924;52.122;9.952;2023-03-26T05:50:48;99399.66;;;7.35;96.57
13705;BME280;6924;52.122;9.952;2023-03-26T05:53:15;99397.66;;;7.35;97.05
13705;BME280;6924;52.122;9.952;2023-03-26T05:55:42;99390.44;;;7.43;96.67
13705;BME280;6924;52.122;9.952;2023-03-26T05:58:11;99386.16;;;7.45;96.95
13705;BME280;6924;52.122;9.952;2023-03-26T06:00:37;99385.03;;;7.55;96.42
13705;BME280;6924;52.122;9.952;2023-03-26T06:03:04;99380.66;;;7.40;96.65
13705;BME280;6924;52.122;9.952;2023-03-26T06:05:37;99377.00;;;7.40;97.15
13705;BME280;6924;52.122;9.952;2023-03-26T06:08:05;99371.84;;;7.33;98.01
13705;BME280;6924;52.122;9.952;2023-03-26T06:10:32;99381.63;;;7.36;97.20
13705;BME280;6924;52.122;9.952;2023-03-26T06:12:58;99375.47;;;7.02;99.92
13705;BME280;6924;52.122;9.952;2023-03-26T06:15:25;99376.56;;;6.93;100.00
13705;BME280;6924;52.122;9.952;2023-03-26T06:17:51;99364.78;;;7.13;100.00
13705;BME280;6924;52.122;9.952;2023-03-26T06:20:18;99371.13;;;7.19;100.00
13705;BME280;6924;52.122;9.952;2023-03-26T06:22:44;99370.72;;;7.34;100.00
13705;BME280;6924;52.122;9.952;2023-03-26T06:25:12;99372.72;;;7.42;99.71
13705;BME280;6924;52.122;9.952;2023-03-26T06:27:38;99370.28;;;7.50;100.00
13705;BME280;6924;52.122;9.952;2023-03-26T06:30:06;99374.66;;;7.33;99.53
13705;BME280;6924;52.122;9.952;2023-03-26T06:32:32;99371.53;;;7.35;100.00
13705;BME280;6924;52.122;9.952;2023-03-26T06:34:59;99369.84;;;7.34;100.00
13705;BME280;6924;52.122;9.952;2023-03-26T06:37:25;99373.97;;;7.28;100.00
13705;BME280;6924;52.122;9.952;2023-03-26T06:39:52;99367.56;;;7.36;100.00
13705;BME280;6924;52.122;9.952;2023-03-26T06:42:19;99367.91;;;7.12;100.00
13705;BME280;6924;52.122;9.952;2023-03-26T06:44:46;99364.66;;;6.96;100.00
13705;BME280;6924;52.122;9.952;2023-03-26T06:47:12;99367.47;;;6.96;100.00
13705;BME280;6924;52.122;9.952;2023-03-26T06:49:39;99371.19;;;6.82;100.00
13705;BME280;6924;52.122;9.952;2023-03-26T06:52:06;99369.72;;;6.85;100.00
13705;BME280;6924;52.122;9.952;2023-03-26T06:54:32;99369.84;;;6.80;100.00
13705;BME280;6924;52.122;9.952;2023-03-26T06:56:58;99373.34;;;6.86;100.00
13705;BME280;6924;52.122;9.952;2023-03-26T06:59:26;99363.25;;;6.85;100.00
13705;BME280;6924;52.122;9.952;2023-03-26T07:01:53;99358.28;;;6.81;100.00
13705;BME280;6924;52.122;9.952;2023-03-26T07:04:19;99358.97;;;6.87;100.00
13705;BME280;6924;52.122;9.952;2023-03-26T07:06:45;99352.09;;;6.93;100.00
13705;BME280;6924;52.122;9.952;2023-03-26T07:09:12;99357.84;;;6.88;100.00
13705;BME280;6924;52.122;9.952;2023-03-26T07:11:38;99350.84;;;6.86;100.00
13705;BME280;6924;52.122;9.952;2023-03-26T07:14:05;99353.72;;;6.94;100.00
13705;BME280;6924;52.122;9.952;2023-03-26T07:16:32;99353.63;;;6.99;100.00
13705;BME280;6924;52.122;9.952;2023-03-26T07:18:59;99351.38;;;6.88;98.76
13705;BME280;6924;52.122;9.952;2023-03-26T07:21:25;99354.53;;;6.86;99.47
13705;BME280;6924;52.122;9.952;2023-03-26T07:23:52;99350.91;;;6.94;100.00
13705;BME280;6924;52.122;9.952;2023-03-26T07:26:25;99345.69;;;7.01;100.00
13705;BME280;6924;52.122;9.952;2023-03-26T07:28:59;99348.72;;;7.14;99.63
13705;BME280;6924;52.122;9.952;2023-03-26T07:31:35;99342.59;;;7.12;97.58
13705;BME280;6924;52.122;9.952;2023-03-26T07:34:08;99345.56;;;7.07;96.57
13705;BME280;6924;52.122;9.952;2023-03-26T07:36:41;99339.31;;;7.18;98.15
13705;BME280;6924;52.122;9.952;2023-03-26T07:39:17;99338.25;;;7.28;98.13
13705;BME280;6924;52.122;9.952;2023-03-26T07:41:49;99336.06;;;7.25;96.44
13705;BME280;6924;52.122;9.952;2023-03-26T07:44:30;99342.91;;;7.33;96.06
13705;BME280;6924;52.122;9.952;2023-03-26T07:47:01;99338.75;;;7.30;94.97
13705;BME280;6924;52.122;9.952;2023-03-26T07:49:29;99344.38;;;7.30;95.01
13705;BME280;6924;52.122;9.952;2023-03-26T07:51:57;99331.78;;;7.28;94.85
13705;BME280;6924;52.122;9.952;2023-03-26T07:54:24;99329.28;;;7.26;95.53
13705;BME280;6924;52.122;9.952;2023-03-26T07:56:53;99329.81;;;7.28;94.82
13705;BME280;6924;52.122;9.952;2023-03-26T07:59:27;99324.69;;;7.30;94.79
13705;BME280;6924;52.122;9.952;2023-03-26T08:02:13;99325.19;;;7.32;94.48
13705;BME280;6924;52.122;9.952;2023-03-26T08:04:55;99319.41;;;7.37;94.54
13705;BME280;6924;52.122;9.952;2023-03-26T08:07:32;99320.59;;;7.45;94.11
13705;BME280;6924;52.122;9.952;2023-03-26T08:10:05;99315.69;;;7.59;93.88
13705;BME280;6924;52.122;9.952;2023-03-26T08:12:40;99311.25;;;7.67;93.14
13705;BME280;6924;52.122;9.952;2023-03-26T08:15:17;99318.00;;;7.57;91.78
13705;BME280;6924;52.122;9.952;2023-03-26T08:17:50;99311.44;;;7.71;93.34
13705;BME280;6924;52.122;9.952;2023-03-26T08:20:26;99313.75;;;7.77;91.87
13705;BME280;6924;52.122;9.952;2023-03-26T08:23:02;99316.47;;;8.00;93.29
13705;BME280;6924;52.122;9.952;2023-03-26T08:25:33;99312.38;;;8.23;93.30
13705;BME280;6924;52.122;9.952;2023-03-26T08:28:08;99310.69;;;8.31;92.86
13705;BME280;6924;52.122;9.952;2023-03-26T08:30:39;99318.66;;;8.20;91.60
13705;BME280;6924;52.122;9.952;2023-03-26T08:33:12;99315.69;;;8.25;90.41
13705;BME280;6924;52.122;9.952;2023-03-26T08:35:39;99322.88;;;8.49;91.36
13705;BME280;6924;52.122;9.952;2023-03-26T08:38:07;99319.38;;;8.61;93.41
13705;BME280;6924;52.122;9.952;2023-03-26T08:41:07;99316.38;;;8.57;90.43
13705;BME280;6924;52.122;9.952;2023-03-26T08:43:56;99319.19;;;8.57;89.76
13705;BME280;6924;52.122;9.952;2023-03-26T08:46:44;99319.53;;;8.47;88.02
13705;BME280;6924;52.122;9.952;2023-03-26T08:52:34;99322.22;;;7.77;95.60
13705;BME280;6924;52.122;9.952;2023-03-26T08:55:23;99324.34;;;7.80;96.34
13705;BME280;6924;52.122;9.952;2023-03-26T08:58:08;99316.06;;;7.75;97.04
13705;BME280;6924;52.122;9.952;2023-03-26T09:01:02;99316.28;;;7.88;97.07
13705;BME280;6924;52.122;9.952;2023-03-26T09:03:52;99320.25;;;7.86;99.28
13705;BME280;6924;52.122;9.952;2023-03-26T09:06:39;99319.44;;;7.95;99.74
13705;BME280;6924;52.122;9.952;2023-03-26T09:09:37;99310.22;;;8.20;100.00
13705;BME280;6924;52.122;9.952;2023-03-26T09:15:33;99299.97;;;8.51;97.93
13705;BME280;6924;52.122;9.952;2023-03-26T09:18:30;99298.44;;;8.79;98.60
13705;BME280;6924;52.122;9.952;2023-03-26T09:21:29;99299.22;;;9.06;98.16
13705;BME280;6924;52.122;9.952;2023-03-26T09:27:26;99299.91;;;9.50;97.56
13705;BME280;6924;52.122;9.952;2023-03-26T09:30:31;99300.56;;;9.56;96.18
13705;BME280;6924;52.122;9.952;2023-03-26T09:33:30;99302.47;;;9.72;95.70
13705;BME280;6924;52.122;9.952;2023-03-26T09:36:18;99283.59;;;9.85;95.17
13705;BME280;6924;52.122;9.952;2023-03-26T09:38:50;99285.78;;;9.50;89.35
13705;BME280;6924;52.122;9.952;2023-03-26T09:41:25;99282.03;;;9.76;91.52
13705;BME280;6924;52.122;9.952;2023-03-26T09:44:31;99277.50;;;9.83;89.94
13705;BME280;6924;52.122;9.952;2023-03-26T09:47:25;99277.94;;;10.15;90.76
13705;BME280;6924;52.122;9.952;2023-03-26T09:50:01;99274.97;;;10.11;83.45
13705;BME280;6924;52.122;9.952;2023-03-26T09:52:55;99276.38;;;9.76;82.98
13705;BME280;6924;52.122;9.952;2023-03-26T09:55:44;99280.72;;;9.73;84.96
13705;BME280;6924;52.122;9.952;2023-03-26T09:58:40;99280.56;;;10.20;88.31
13705;BME280;6924;52.122;9.952;2023-03-26T10:01:16;99268.59;;;10.65;89.87
13705;BME280;6924;52.122;9.952;2023-03-26T10:03:56;99260.22;;;11.02;88.65
13705;BME280;6924;52.122;9.952;2023-03-26T10:06:39;99264.66;;;11.36;87.37
13705;BME280;6924;52.122;9.952;2023-03-26T10:09:19;99263.00;;;11.48;83.53
13705;BME280;6924;52.122;9.952;2023-03-26T10:12:09;99263.69;;;10.87;78.59
13705;BME280;6924;52.122;9.952;2023-03-26T10:14:44;99265.41;;;10.67;77.21
13705;BME280;6924;52.122;9.952;2023-03-26T10:17:30;99265.78;;;10.78;79.66
13705;BME280;6924;52.122;9.952;2023-03-26T10:20:10;99258.94;;;11.12;81.03
13705;BME280;6924;52.122;9.952;2023-03-26T10:22:50;99257.69;;;11.34;80.12
13705;BME280;6924;52.122;9.952;2023-03-26T10:25:30;99256.75;;;11.42;78.06
13705;BME280;6924;52.122;9.952;2023-03-26T10:28:09;99243.53;;;11.34;75.87
13705;BME280;6924;52.122;9.952;2023-03-26T10:30:54;99244.75;;;11.00;74.20
13705;BME280;6924;52.122;9.952;2023-03-26T10:33:29;99241.22;;;10.57;75.44
13705;BME280;6924;52.122;9.952;2023-03-26T10:36:12;99233.84;;;10.77;76.48
13705;BME280;6924;52.122;9.952;2023-03-26T10:38:53;99234.88;;;11.06;77.27
13705;BME280;6924;52.122;9.952;2023-03-26T10:41:29;99230.19;;;11.10;76.21
13705;BME280;6924;52.122;9.952;2023-03-26T10:44:15;99229.50;;;10.80;76.68
13705;BME280;6924;52.122;9.952;2023-03-26T10:47:09;99219.41;;;10.58;76.74
13705;BME280;6924;52.122;9.952;2023-03-26T10:50:02;99216.94;;;10.89;77.00
13705;BME280;6924;52.122;9.952;2023-03-26T10:52:39;99217.47;;;10.70;76.83
13705;BME280;6924;52.122;9.952;2023-03-26T10:55:12;99213.75;;;10.91;76.91
13705;BME280;6924;52.122;9.952;2023-03-26T10:57:42;99224.00;;;10.83;74.52
13705;BME280;6924;52.122;9.952;2023-03-26T11:00:17;99222.88;;;10.63;74.45
13705;BME280;6924;52.122;9.952;2023-03-26T11:05:50;99224.00;;;10.50;74.33
13705;BME280;6924;52.122;9.952;2023-03-26T11:08:24;99216.03;;;10.64;73.99
13705;BME280;6924;52.122;9.952;2023-03-26T11:11:00;99214.63;;;10.70;74.11
13705;BME280;6924;52.122;9.952;2023-03-26T11:13:40;99215.66;;;10.99;73.54
13705;BME280;6924;52.122;9.952;2023-03-26T11:16:12;99219.00;;;11.13;73.10
13705;BME280;6924;52.122;9.952;2023-03-26T11:18:48;99224.41;;;11.31;73.15
13705;BME280;6924;52.122;9.952;2023-03-26T11:21:23;99220.88;;;11.09;72.49
13705;BME280;6924;52.122;9.952;2023-03-26T11:24:01;99214.25;;;11.17;74.23
13705;BME280;6924;52.122;9.952;2023-03-26T11:26:39;99216.09;;;10.55;73.36
13705;BME280;6924;52.122;9.952;2023-03-26T11:29:19;99217.84;;;10.48;76.05
13705;BME280;6924;52.122;9.952;2023-03-26T11:31:55;99214.97;;;10.36;75.22
13705;BME280;6924;52.122;9.952;2023-03-26T11:34:33;99224.13;;;10.11;76.50
13705;BME280;6924;52.122;9.952;2023-03-26T11:37:04;99214.59;;;10.16;77.48
13705;BME280;6924;52.122;9.952;2023-03-26T11:39:41;99209.50;;;10.09;75.85
13705;BME280;6924;52.122;9.952;2023-03-26T11:42:12;99210.97;;;9.95;78.45
13705;BME280;6924;52.122;9.952;2023-03-26T11:44:43;99211.38;;;9.84;77.36
13705;BME280;6924;52.122;9.952;2023-03-26T11:47:14;99212.19;;;9.85;77.52
13705;BME280;6924;52.122;9.952;2023-03-26T11:49:46;99212.00;;;9.90;78.24
13705;BME280;6924;52.122;9.952;2023-03-26T11:52:15;99212.13;;;9.93;76.87
13705;BME280;6924;52.122;9.952;2023-03-26T11:54:41;99216.44;;;9.70;76.67
13705;BME280;6924;52.122;9.952;2023-03-26T11:57:17;99200.28;;;9.79;77.17
13705;BME280;6924;52.122;9.952;2023-03-26T11:59:50;99204.19;;;9.87;77.72
13705;BME280;6924;52.122;9.952;2023-03-26T12:02:23;99209.03;;;9.86;77.74
13705;BME280;6924;52.122;9.952;2023-03-26T12:05:11;99206.00;;;9.91;77.04
13705;BME280;6924;52.122;9.952;2023-03-26T12:07:44;99198.50;;;9.75;77.02
13705;BME280;6924;52.122;9.952;2023-03-26T12:10:22;99204.03;;;9.62;76.31
13705;BME280;6924;52.122;9.952;2023-03-26T12:12:51;99200.44;;;9.53;77.29
13705;BME280;6924;52.122;9.952;2023-03-26T12:15:19;99198.78;;;9.52;77.91
13705;BME280;6924;52.122;9.952;2023-03-26T12:17:49;99195.59;;;9.33;78.80
13705;BME280;6924;52.122;9.952;2023-03-26T12:20:35;99187.94;;;9.33;80.71
13705;BME280;6924;52.122;9.952;2023-03-26T12:23:42;99192.69;;;9.41;82.13
13705;BME280;6924;52.122;9.952;2023-03-26T12:26:13;99184.34;;;9.54;83.64
13705;BME280;6924;52.122;9.952;2023-03-26T12:28:43;99183.63;;;9.36;82.61
13705;BME280;6924;52.122;9.952;2023-03-26T12:31:11;99192.31;;;9.22;84.55
13705;BME280;6924;52.122;9.952;2023-03-26T12:33:42;99195.34;;;9.46;87.05
13705;BME280;6924;52.122;9.952;2023-03-26T12:36:19;99196.88;;;9.65;84.75
13705;BME280;6924;52.122;9.952;2023-03-26T12:38:48;99196.81;;;9.73;84.93
13705;BME280;6924;52.122;9.952;2023-03-26T12:41:16;99207.19;;;9.90;86.05
13705;BME280;6924;52.122;9.952;2023-03-26T12:43:44;99208.56;;;10.05;87.30
13705;BME280;6924;52.122;9.952;2023-03-26T12:46:23;99211.91;;;9.99;88.53
13705;BME280;6924;52.122;9.952;2023-03-26T12:48:51;99212.06;;;10.02;89.72
13705;BME280;6924;52.122;9.952;2023-03-26T12:51:30;99216.97;;;9.93;93.65
13705;BME280;6924;52.122;9.952;2023-03-26T12:54:12;99209.63;;;9.71;94.17
13705;BME280;6924;52.122;9.952;2023-03-26T12:56:51;99212.50;;;9.62;94.77
13705;BME280;6924;52.122;9.952;2023-03-26T12:59:34;99217.06;;;9.55;95.62
13705;BME280;6924;52.122;9.952;2023-03-26T13:02:32;99212.75;;;9.48;95.98
13705;BME280;6924;52.122;9.952;2023-03-26T13:05:26;99214.81;;;9.39;97.29
13705;BME280;6924;52.122;9.952;2023-03-26T13:08:04;99210.13;;;9.43;97.96
13705;BME280;6924;52.122;9.952;2023-03-26T13:10:47;99213.31;;;9.42;98.39
13705;BME280;6924;52.122;9.952;2023-03-26T13:13:26;99207.69;;;9.33;98.79
13705;BME280;6924;52.122;9.952;2023-03-26T13:16:01;99202.66;;;9.39;98.29
13705;BME280;6924;52.122;9.952;2023-03-26T13:18:41;99207.66;;;9.42;98.02
13705;BME280;6924;52.122;9.952;2023-03-26T13:21:11;99213.78;;;9.44;98.18
13705;BME280;6924;52.122;9.952;2023-03-26T13:23:45;99210.47;;;9.42;98.08
13705;BME280;6924;52.122;9.952;2023-03-26T13:26:33;99211.31;;;9.42;97.88
13705;BME280;6924;52.122;9.952;2023-03-26T13:29:08;99197.53;;;9.41;98.22
13705;BME280;6924;52.122;9.952;2023-03-26T13:31:41;99208.16;;;9.44;97.97
13705;BME280;6924;52.122;9.952;2023-03-26T13:34:16;99206.97;;;9.45;97.68
13705;BME280;6924;52.122;9.952;2023-03-26T13:36:51;99202.63;;;9.47;98.23
13705;BME280;6924;52.122;9.952;2023-03-26T13:39:26;99193.00;;;9.48;98.10
13705;BME280;6924;52.122;9.952;2023-03-26T13:42:27;99198.69;;;9.40;98.64
13705;BME280;6924;52.122;9.952;2023-03-26T13:45:08;99194.16;;;9.47;98.37
13705;BME280;6924;52.122;9.952;2023-03-26T13:47:43;99192.09;;;9.57;98.97
13705;BME280;6924;52.122;9.952;2023-03-26T13:50:19;99189.59;;;9.64;99.04
13705;BME280;6924;52.122;9.952;2023-03-26T13:52:48;99189.06;;;9.70;98.80
13705;BME280;6924;52.122;9.952;2023-03-26T13:55:20;99187.38;;;9.69;98.40
13705;BME280;6924;52.122;9.952;2023-03-26T13:57:54;99178.56;;;9.71;98.60
13705;BME280;6924;52.122;9.952;2023-03-26T14:00:26;99181.72;;;9.69;97.97